sensor_id;sensor_type;location;lat;lon;timestamp;pressure;altitude;pressure_sealevel;temperature;humidity
32197;BME280;18697;42.770;23.400;2023-05-10T00:01:26;95915.31;;;10.63;90.69
32197;BME280;18697;42.770;23.400;2023-05-10T00:03:51;95917.38;;;10.31;92.18
32197;BME280;18697;42.770;23.400;2023-05-10T00:06:17;95916.88;;;10.64;93.72
32197;BME280;18697;42.770;23.400;2023-05-10T00:08:42;95918.19;;;10.50;91.99
32197;BME280;18697;42.770;23.400;2023-05-10T00:11:07;95926.66;;;10.46;92.70
32197;BME280;18697;42.770;23.400;2023-05-10T00:13:33;95913.69;;;10.34;94.26
32197;BME280;18697;42.770;23.400;2023-05-10T00:15:58;95917.56;;;10.37;93.43
32197;BME280;18697;42.770;23.400;2023-05-10T00:18:24;95908.88;;;10.75;93.73
32197;BME280;18697;42.770;23.400;2023-05-10T00:20:49;95909.91;;;10.59;92.50
32197;BME280;18697;42.770;23.400;2023-05-10T00:23:14;95908.72;;;10.69;92.35
32197;BME280;18697;42.770;23.400;2023-05-10T00:25:40;95912.34;;;10.97;91.76
32197;BME280;18697;42.770;23.400;2023-05-10T00:28:05;95904.97;;;11.12;89.55
32197;BME280;18697;42.770;23.400;2023-05-10T00:30:30;95911.66;;;10.75;91.11
32197;BME280;18697;42.770;23.400;2023-05-10T00:32:56;95907.53;;;10.89;91.14
32197;BME280;18697;42.770;23.400;2023-05-10T00:35:21;95906.97;;;11.12;89.73
32197;BME280;18697;42.770;23.400;2023-05-10T00:37:47;95909.44;;;11.10;89.41
32197;BME280;18697;42.770;23.400;2023-05-10T00:40:12;95909.44;;;11.10;89.76
32197;BME280;18697;42.770;23.400;2023-05-10T00:42:37;95902.03;;;11.07;89.65
32197;BME280;18697;42.770;23.400;2023-05-10T00:45:03;95893.59;;;10.70;91.36
32197;BME280;18697;42.770;23.400;2023-05-10T00:47:29;95893.69;;;11.07;91.67
32197;BME280;18697;42.770;23.400;2023-05-10T00:49:54;95893.97;;;11.00;90.07
32197;BME280;18697;42.770;23.400;2023-05-10T00:52:21;95889.34;;;11.06;90.61
32197;BME280;18697;42.770;23.400;2023-05-10T00:54:49;95896.72;;;10.91;90.37
32197;BME280;18697;42.770;23.400;2023-05-10T00:57:14;95885.63;;;10.91;91.97
32197;BME280;18697;42.770;23.400;2023-05-10T00:59:40;95885.56;;;10.72;90.54
32197;BME280;18697;42.770;23.400;2023-05-10T01:02:05;95890.75;;;10.52;92.52
32197;BME280;18697;42.770;23.400;2023-05-10T01:04:31;95892.56;;;10.37;94.09
32197;BME280;18697;42.770;23.400;2023-05-10T01:06:57;95888.91;;;10.58;94.01
32197;BME280;18697;42.770;23.400;2023-05-10T01:09:22;95891.56;;;10.62;94.21
32197;BME280;18697;42.770;23.400;2023-05-10T01:11:50;95887.78;;;10.86;93.81
32197;BME280;18697;42.770;23.400;2023-05-10T01:14:17;95885.88;;;10.74;92.39
32197;BME280;18697;42.770;23.400;2023-05-10T01:16:44;95885.13;;;10.83;92.83
32197;BME280;18697;42.770;23.400;2023-05-10T01:19:22;95880.94;;;10.69;93.67
32197;BME280;18697;42.770;23.400;2023-05-10T01:22:02;95876.44;;;10.63;93.67
32197;BME280;18697;42.770;23.400;2023-05-10T01:33:32;95880.22;;;10.96;91.03
32197;BME280;18697;42.770;23.400;2023-05-10T01:36:09;95868.22;;;10.50;93.06
32197;BME280;18697;42.770;23.400;2023-05-10T01:38:47;95878.78;;;10.73;93.29
32197;BME280;18697;42.770;23.400;2023-05-10T01:41:19;95877.00;;;10.48;93.51
32197;BME280;18697;42.770;23.400;2023-05-10T01:43:51;95878.06;;;10.42;94.62
32197;BME280;18697;42.770;23.400;2023-05-10T01:46:27;95872.13;;;10.22;96.01
32197;BME280;18697;42.770;23.400;2023-05-10T01:48:55;95878.50;;;10.09;96.95
32197;BME280;18697;42.770;23.400;2023-05-10T01:51:29;95869.09;;;10.07;96.26
32197;BME280;18697;42.770;23.400;2023-05-10T01:54:01;95871.41;;;10.08;96.42
32197;BME280;18697;42.770;23.400;2023-05-10T01:56:29;95872.19;;;10.31;96.35
32197;BME280;18697;42.770;23.400;2023-05-10T01:58:56;95874.84;;;10.12;94.91
32197;BME280;18697;42.770;23.400;2023-05-10T02:01:24;95881.47;;;10.15;94.58
32197;BME280;18697;42.770;23.400;2023-05-10T02:03:51;95874.59;;;10.19;95.32
32197;BME280;18697;42.770;23.400;2023-05-10T02:06:18;95880.47;;;9.78;94.53
32197;BME280;18697;42.770;23.400;2023-05-10T02:08:45;95879.06;;;9.95;94.87
32197;BME280;18697;42.770;23.400;2023-05-10T02:11:13;95875.56;;;9.82;95.19
32197;BME280;18697;42.770;23.400;2023-05-10T02:13:39;95870.66;;;9.55;94.62
32197;BME280;18697;42.770;23.400;2023-05-10T02:16:05;95868.06;;;9.61;96.51
32197;BME280;18697;42.770;23.400;2023-05-10T02:18:32;95862.84;;;9.41;96.20
32197;BME280;18697;42.770;23.400;2023-05-10T02:20:59;95876.75;;;9.28;96.14
32197;BME280;18697;42.770;23.400;2023-05-10T02:23:25;95873.31;;;9.24;96.39
32197;BME280;18697;42.770;23.400;2023-05-10T02:25:53;95870.69;;;9.20;96.71
32197;BME280;18697;42.770;23.400;2023-05-10T02:28:21;95870.41;;;9.06;97.18
32197;BME280;18697;42.770;23.400;2023-05-10T02:30:47;95869.75;;;9.02;97.95
32197;BME280;18697;42.770;23.400;2023-05-10T02:33:13;95863.88;;;9.00;97.47
32197;BME280;18697;42.770;23.400;2023-05-10T02:35:39;95870.56;;;8.89;96.73
32197;BME280;18697;42.770;23.400;2023-05-10T02:38:05;95881.34;;;8.75;93.65
32197;BME280;18697;42.770;23.400;2023-05-10T02:40:32;95894.88;;;8.73;94.26
32197;BME280;18697;42.770;23.400;2023-05-10T02:42:59;95887.69;;;8.50;93.03
32197;BME280;18697;42.770;23.400;2023-05-10T02:45:28;95896.09;;;8.46;91.54
32197;BME280;18697;42.770;23.400;2023-05-10T02:47:56;95891.19;;;8.25;89.76
32197;BME280;18697;42.770;23.400;2023-05-10T02:50:22;95885.66;;;8.25;90.90
32197;BME280;18697;42.770;23.400;2023-05-10T02:52:50;95876.63;;;8.37;90.92
32197;BME280;18697;42.770;23.400;2023-05-10T02:55:25;95874.81;;;8.31;91.54
32197;BME280;18697;42.770;23.400;2023-05-10T02:57:56;95874.59;;;8.25;91.13
32197;BME280;18697;42.770;23.400;2023-05-10T03:00:24;95874.94;;;8.27;90.11
32197;BME280;18697;42.770;23.400;2023-05-10T03:02:49;95885.00;;;8.21;88.29
32197;BME280;18697;42.770;23.400;2023-05-10T03:05:15;95902.50;;;8.31;87.64
32197;BME280;18697;42.770;23.400;2023-05-10T03:07:40;95893.19;;;8.24;87.25
32197;BME280;18697;42.770;23.400;2023-05-10T03:10:06;95900.66;;;8.53;86.85
32197;BME280;18697;42.770;23.400;2023-05-10T03:12:46;95897.97;;;8.62;86.76
32197;BME280;18697;42.770;23.400;2023-05-10T03:17:59;95891.69;;;8.96;86.06
32197;BME280;18697;42.770;23.400;2023-05-10T03:20:50;95896.50;;;8.83;84.56
32197;BME280;18697;42.770;23.400;2023-05-10T03:25:51;95896.19;;;8.68;84.62
32197;BME280;18697;42.770;23.400;2023-05-10T03:28:18;95895.53;;;8.64;83.27
32197;BME280;18697;42.770;23.400;2023-05-10T03:30:44;95894.44;;;8.49;83.03
32197;BME280;18697;42.770;23.400;2023-05-10T03:33:11;95901.41;;;8.53;83.87
32197;BME280;18697;42.770;23.400;2023-05-10T03:35:37;95898.53;;;8.70;83.42
32197;BME280;18697;42.770;23.400;2023-05-10T03:38:03;95905.06;;;8.76;83.12
32197;BME280;18697;42.770;23.400;2023-05-10T03:40:28;95903.72;;;8.80;81.86
32197;BME280;18697;42.770;23.400;2023-05-10T03:42:56;95899.31;;;8.70;81.75
32197;BME280;18697;42.770;23.400;2023-05-10T03:45:21;95894.22;;;8.69;82.15
32197;BME280;18697;42.770;23.400;2023-05-10T03:47:47;95904.41;;;8.72;82.88
32197;BME280;18697;42.770;23.400;2023-05-10T03:50:12;95917.03;;;8.73;83.74
32197;BME280;18697;42.770;23.400;2023-05-10T03:52:38;95908.94;;;8.78;84.31
32197;BME280;18697;42.770;23.400;2023-05-10T03:55:05;95909.47;;;8.86;85.16
32197;BME280;18697;42.770;23.400;2023-05-10T03:57:30;95908.69;;;8.85;86.04
32197;BME280;18697;42.770;23.400;2023-05-10T03:59:56;95920.44;;;8.89;86.10
32197;BME280;18697;42.770;23.400;2023-05-10T04:02:21;95920.66;;;8.82;85.68
32197;BME280;18697;42.770;23.400;2023-05-10T04:04:46;95908.38;;;8.71;86.54
32197;BME280;18697;42.770;23.400;2023-05-10T04:07:13;95918.25;;;8.72;84.68
32197;BME280;18697;42.770;23.400;2023-05-10T04:09:39;95912.59;;;8.75;85.52
32197;BME280;18697;42.770;23.400;2023-05-10T04:12:05;95914.03;;;8.67;84.81
32197;BME280;18697;42.770;23.400;2023-05-10T04:14:31;95911.16;;;8.71;84.74
32197;BME280;18697;42.770;23.400;2023-05-10T04:16:56;95917.56;;;8.68;84.30
32197;BME280;18697;42.770;23.400;2023-05-10T04:19:22;95914.16;;;8.51;83.62
32197;BME280;18697;42.770;23.400;2023-05-10T04:21:47;95921.56;;;8.67;84.18
32197;BME280;18697;42.770;23.400;2023-05-10T04:24:13;95919.25;;;8.52;82.73
32197;BME280;18697;42.770;23.400;2023-05-10T04:26:38;95932.09;;;8.59;82.16
32197;BME280;18697;42.770;23.400;2023-05-10T04:29:03;95918.69;;;8.57;82.75
32197;BME280;18697;42.770;23.400;2023-05-10T04:31:29;95925.34;;;8.60;81.78
32197;BME280;18697;42.770;23.400;2023-05-10T04:33:54;95916.69;;;8.58;81.81
32197;BME280;18697;42.770;23.400;2023-05-10T04:36:19;95913.16;;;8.57;81.48
32197;BME280;18697;42.770;23.400;2023-05-10T04:38:45;95930.88;;;8.73;81.58
32197;BME280;18697;42.770;23.400;2023-05-10T04:41:11;95925.22;;;8.51;81.68
32197;BME280;18697;42.770;23.400;2023-05-10T04:43:37;95924.22;;;8.57;81.63
32197;BME280;18697;42.770;23.400;2023-05-10T04:46:03;95917.03;;;8.60;81.34
32197;BME280;18697;42.770;23.400;2023-05-10T04:48:29;95926.00;;;8.51;80.71
32197;BME280;18697;42.770;23.400;2023-05-10T04:50:54;95927.31;;;8.72;82.21
32197;BME280;18697;42.770;23.400;2023-05-10T04:53:20;95921.44;;;8.70;81.75
32197;BME280;18697;42.770;23.400;2023-05-10T04:55:45;95932.53;;;8.83;80.72
32197;BME280;18697;42.770;23.400;2023-05-10T04:58:12;95925.84;;;8.93;80.94
32197;BME280;18697;42.770;23.400;2023-05-10T05:00:37;95935.56;;;8.98;80.52
32197;BME280;18697;42.770;23.400;2023-05-10T05:03:03;95922.72;;;9.04;80.61
32197;BME280;18697;42.770;23.400;2023-05-10T05:05:28;95920.16;;;9.09;80.94
32197;BME280;18697;42.770;23.400;2023-05-10T05:07:53;95923.72;;;8.97;79.87
32197;BME280;18697;42.770;23.400;2023-05-10T05:10:19;95928.56;;;9.06;80.56
32197;BME280;18697;42.770;23.400;2023-05-10T05:12:44;95929.69;;;9.08;80.22
32197;BME280;18697;42.770;23.400;2023-05-10T05:15:10;95928.81;;;8.99;79.65
32197;BME280;18697;42.770;23.400;2023-05-10T05:17:35;95933.56;;;9.11;80.08
32197;BME280;18697;42.770;23.400;2023-05-10T05:20:01;95927.25;;;9.10;79.98
32197;BME280;18697;42.770;23.400;2023-05-10T05:22:27;95930.13;;;9.07;79.53
32197;BME280;18697;42.770;23.400;2023-05-10T05:24:56;95927.34;;;9.07;80.22
32197;BME280;18697;42.770;23.400;2023-05-10T05:27:24;95933.25;;;8.96;80.16
32197;BME280;18697;42.770;23.400;2023-05-10T05:29:55;95933.59;;;8.98;79.40
32197;BME280;18697;42.770;23.400;2023-05-10T05:32:21;95923.81;;;9.06;80.07
32197;BME280;18697;42.770;23.400;2023-05-10T05:34:47;95924.50;;;8.98;79.60
32197;BME280;18697;42.770;23.400;2023-05-10T05:37:16;95936.88;;;9.06;80.12
32197;BME280;18697;42.770;23.400;2023-05-10T05:39:42;95931.91;;;9.01;79.81
32197;BME280;18697;42.770;23.400;2023-05-10T05:42:08;95931.69;;;8.95;79.88
32197;BME280;18697;42.770;23.400;2023-05-10T05:44:34;95939.34;;;9.04;80.54
32197;BME280;18697;42.770;23.400;2023-05-10T05:46:59;95936.03;;;8.96;80.59
32197;BME280;18697;42.770;23.400;2023-05-10T05:49:24;95939.66;;;9.06;81.48
32197;BME280;18697;42.770;23.400;2023-05-10T05:51:50;95947.31;;;9.02;80.31
32197;BME280;18697;42.770;23.400;2023-05-10T05:54:15;95940.88;;;9.05;80.30
32197;BME280;18697;42.770;23.400;2023-05-10T05:56:41;95950.97;;;9.11;80.19
32197;BME280;18697;42.770;23.400;2023-05-10T05:59:06;95951.06;;;9.20;80.44
32197;BME280;18697;42.770;23.400;2023-05-10T06:01:32;95957.59;;;9.14;79.50
32197;BME280;18697;42.770;23.400;2023-05-10T06:03:57;95947.06;;;9.21;79.52
32197;BME280;18697;42.770;23.400;2023-05-10T06:06:22;95961.06;;;9.05;78.14
32197;BME280;18697;42.770;23.400;2023-05-10T06:08:48;95959.63;;;9.01;79.27
32197;BME280;18697;42.770;23.400;2023-05-10T06:11:13;95961.84;;;8.93;77.75
32197;BME280;18697;42.770;23.400;2023-05-10T06:13:38;95959.41;;;8.95;79.71
32197;BME280;18697;42.770;23.400;2023-05-10T06:16:04;95962.28;;;9.04;78.05
32197;BME280;18697;42.770;23.400;2023-05-10T06:18:29;95963.72;;;8.96;78.32
32197;BME280;18697;42.770;23.400;2023-05-10T06:20:55;95972.16;;;8.93;77.04
32197;BME280;18697;42.770;23.400;2023-05-10T06:23:20;95959.94;;;9.03;77.97
32197;BME280;18697;42.770;23.400;2023-05-10T06:25:45;95959.22;;;8.89;77.90
32197;BME280;18697;42.770;23.400;2023-05-10T06:28:11;95971.84;;;8.91;76.66
32197;BME280;18697;42.770;23.400;2023-05-10T06:30:36;95959.16;;;9.02;76.69
32197;BME280;18697;42.770;23.400;2023-05-10T06:33:02;95966.94;;;9.07;76.78
32197;BME280;18697;42.770;23.400;2023-05-10T06:35:28;95966.25;;;9.16;77.53
32197;BME280;18697;42.770;23.400;2023-05-10T06:37:54;95969.69;;;9.20;75.36
32197;BME280;18697;42.770;23.400;2023-05-10T06:40:19;95961.00;;;9.31;75.95
32197;BME280;18697;42.770;23.400;2023-05-10T06:42:45;95962.50;;;9.10;73.83
32197;BME280;18697;42.770;23.400;2023-05-10T06:45:11;95955.97;;;9.04;75.28
32197;BME280;18697;42.770;23.400;2023-05-10T06:47:39;95958.94;;;9.09;74.89
32197;BME280;18697;42.770;23.400;2023-05-10T06:50:06;95964.13;;;9.20;74.93
32197;BME280;18697;42.770;23.400;2023-05-10T06:52:32;95958.59;;;9.20;73.73
32197;BME280;18697;42.770;23.400;2023-05-10T06:54:57;95974.09;;;9.30;74.57
32197;BME280;18697;42.770;23.400;2023-05-10T06:57:22;95959.91;;;9.28;74.83
32197;BME280;18697;42.770;23.400;2023-05-10T06:59:48;95962.22;;;9.30;73.92
32197;BME280;18697;42.770;23.400;2023-05-10T07:02:13;95967.84;;;9.39;74.65
32197;BME280;18697;42.770;23.400;2023-05-10T07:04:40;95961.63;;;9.47;73.71
32197;BME280;18697;42.770;23.400;2023-05-10T07:07:05;95964.19;;;9.42;72.47
32197;BME280;18697;42.770;23.400;2023-05-10T07:09:30;95955.91;;;9.29;71.77
32197;BME280;18697;42.770;23.400;2023-05-10T07:11:56;95969.56;;;9.23;71.82
32197;BME280;18697;42.770;23.400;2023-05-10T07:14:22;95966.00;;;9.23;72.01
32197;BME280;18697;42.770;23.400;2023-05-10T07:16:48;95964.00;;;9.23;71.66
32197;BME280;18697;42.770;23.400;2023-05-10T07:19:14;95971.84;;;9.38;71.91
32197;BME280;18697;42.770;23.400;2023-05-10T07:21:39;95976.63;;;9.37;71.95
32197;BME280;18697;42.770;23.400;2023-05-10T07:24:07;95968.97;;;9.41;70.27
32197;BME280;18697;42.770;23.400;2023-05-10T07:26:33;95968.97;;;9.41;71.05
32197;BME280;18697;42.770;23.400;2023-05-10T07:28:58;95961.63;;;9.47;71.18
32197;BME280;18697;42.770;23.400;2023-05-10T07:31:24;95973.25;;;9.55;71.33
32197;BME280;18697;42.770;23.400;2023-05-10T07:33:49;95974.69;;;9.60;71.97
32197;BME280;18697;42.770;23.400;2023-05-10T07:36:14;95982.66;;;9.58;71.44
32197;BME280;18697;42.770;23.400;2023-05-10T07:38:40;95989.91;;;9.77;72.05
32197;BME280;18697;42.770;23.400;2023-05-10T07:41:05;95987.13;;;9.77;70.21
32197;BME280;18697;42.770;23.400;2023-05-10T07:43:31;95984.66;;;9.79;69.83
32197;BME280;18697;42.770;23.400;2023-05-10T07:45:56;95980.63;;;9.93;70.94
32197;BME280;18697;42.770;23.400;2023-05-10T07:48:22;95978.16;;;9.95;69.88
32197;BME280;18697;42.770;23.400;2023-05-10T07:50:48;95976.56;;;10.06;70.89
32197;BME280;18697;42.770;23.400;2023-05-10T07:53:13;95979.19;;;10.10;69.82
32197;BME280;18697;42.770;23.400;2023-05-10T07:55:39;95982.16;;;10.15;70.19
32197;BME280;18697;42.770;23.400;2023-05-10T07:58:04;95980.72;;;10.24;70.22
32197;BME280;18697;42.770;23.400;2023-05-10T08:00:29;95972.06;;;10.22;68.82
32197;BME280;18697;42.770;23.400;2023-05-10T08:02:55;95981.81;;;10.26;68.95
32197;BME280;18697;42.770;23.400;2023-05-10T08:05:20;95987.50;;;10.23;68.02
32197;BME280;18697;42.770;23.400;2023-05-10T08:07:45;95973.34;;;10.30;68.98
32197;BME280;18697;42.770;23.400;2023-05-10T08:10:11;95978.66;;;10.46;70.99
32197;BME280;18697;42.770;23.400;2023-05-10T08:12:37;95992.91;;;10.26;69.85
32197;BME280;18697;42.770;23.400;2023-05-10T08:15:03;95986.13;;;10.27;69.75
32197;BME280;18697;42.770;23.400;2023-05-10T08:17:29;96003.78;;;10.42;72.14
32197;BME280;18697;42.770;23.400;2023-05-10T08:19:54;95987.84;;;10.65;70.81
32197;BME280;18697;42.770;23.400;2023-05-10T08:22:20;95976.50;;;10.81;71.33
32197;BME280;18697;42.770;23.400;2023-05-10T08:24:45;95991.25;;;11.00;70.34
32197;BME280;18697;42.770;23.400;2023-05-10T08:27:10;95986.94;;;10.99;69.60
32197;BME280;18697;42.770;23.400;2023-05-10T08:29:37;95990.13;;;10.88;70.00
32197;BME280;18697;42.770;23.400;2023-05-10T08:32:02;95989.69;;;10.99;69.96
32197;BME280;18697;42.770;23.400;2023-05-10T08:34:28;95989.91;;;11.13;71.67
32197;BME280;18697;42.770;23.400;2023-05-10T08:36:53;95992.13;;;10.88;70.16
32197;BME280;18697;42.770;23.400;2023-05-10T08:39:18;95986.28;;;10.95;71.72
32197;BME280;18697;42.770;23.400;2023-05-10T08:41:45;95993.72;;;10.67;72.05
32197;BME280;18697;42.770;23.400;2023-05-10T08:44:11;95985.59;;;10.72;72.00
32197;BME280;18697;42.770;23.400;2023-05-10T08:46:40;95984.66;;;10.75;73.43
32197;BME280;18697;42.770;23.400;2023-05-10T08:49:11;95988.41;;;10.81;71.97
32197;BME280;18697;42.770;23.400;2023-05-10T08:51:40;95997.97;;;10.80;72.25
32197;BME280;18697;42.770;23.400;2023-05-10T08:54:09;95997.06;;;10.83;71.57
32197;BME280;18697;42.770;23.400;2023-05-10T08:56:34;95984.75;;;10.94;71.47
32197;BME280;18697;42.770;23.400;2023-05-10T08:58:59;95984.50;;;11.10;70.81
32197;BME280;18697;42.770;23.400;2023-05-10T09:01:26;95991.94;;;10.82;70.08
32197;BME280;18697;42.770;23.400;2023-05-10T09:03:52;95981.88;;;10.75;69.54
32197;BME280;18697;42.770;23.400;2023-05-10T09:06:18;95995.06;;;10.84;69.53
32197;BME280;18697;42.770;23.400;2023-05-10T09:08:43;95986.25;;;10.85;70.29
32197;BME280;18697;42.770;23.400;2023-05-10T09:11:11;95978.41;;;10.93;69.36
32197;BME280;18697;42.770;23.400;2023-05-10T09:13:36;95977.53;;;11.05;70.13
32197;BME280;18697;42.770;23.400;2023-05-10T09:16:03;95980.16;;;11.09;70.39
32197;BME280;18697;42.770;23.400;2023-05-10T09:18:28;95998.31;;;10.92;68.58
32197;BME280;18697;42.770;23.400;2023-05-10T09:20:54;95990.78;;;11.01;69.02
32197;BME280;18697;42.770;23.400;2023-05-10T09:23:19;95982.94;;;11.09;67.49
32197;BME280;18697;42.770;23.400;2023-05-10T09:25:45;95982.50;;;11.10;67.09
32197;BME280;18697;42.770;23.400;2023-05-10T09:28:11;95982.63;;;11.07;68.11
32197;BME280;18697;42.770;23.400;2023-05-10T09:30:36;95980.94;;;11.09;67.50
32197;BME280;18697;42.770;23.400;2023-05-10T09:33:02;95982.91;;;11.00;68.13
32197;BME280;18697;42.770;23.400;2023-05-10T09:35:32;95982.41;;;10.92;68.01
32197;BME280;18697;42.770;23.400;2023-05-10T09:38:00;95976.88;;;10.92;68.50
32197;BME280;18697;42.770;23.400;2023-05-10T09:40:27;95981.94;;;10.84;68.04
32197;BME280;18697;42.770;23.400;2023-05-10T09:43:01;95969.00;;;10.91;68.44
32197;BME280;18697;42.770;23.400;2023-05-10T09:45:28;95975.81;;;10.99;67.68
32197;BME280;18697;42.770;23.400;2023-05-10T09:47:54;95971.97;;;11.05;68.11
32197;BME280;18697;42.770;23.400;2023-05-10T09:50:21;95966.84;;;10.95;66.93
32197;BME280;18697;42.770;23.400;2023-05-10T09:52:52;95970.91;;;11.12;68.46
32197;BME280;18697;42.770;23.400;2023-05-10T09:55:19;95963.03;;;11.10;68.31
32197;BME280;18697;42.770;23.400;2023-05-10T09:57:46;95968.72;;;11.07;69.31
32197;BME280;18697;42.770;23.400;2023-05-10T10:00:19;95959.41;;;10.92;68.49
32197;BME280;18697;42.770;23.400;2023-05-10T10:02:55;95958.34;;;10.98;69.60
32197;BME280;18697;42.770;23.400;2023-05-10T10:05:27;95954.34;;;10.99;69.52
32197;BME280;18697;42.770;23.400;2023-05-10T10:07:52;95947.72;;;11.15;70.68
32197;BME280;18697;42.770;23.400;2023-05-10T10:10:18;95952.81;;;11.07;69.32
32197;BME280;18697;42.770;23.400;2023-05-10T10:12:43;95949.94;;;11.38;70.04
32197;BME280;18697;42.770;23.400;2023-05-10T10:15:10;95958.91;;;11.42;68.69
32197;BME280;18697;42.770;23.400;2023-05-10T10:17:36;95945.31;;;11.44;69.32
32197;BME280;18697;42.770;23.400;2023-05-10T10:20:05;95942.06;;;11.64;69.24
32197;BME280;18697;42.770;23.400;2023-05-10T10:22:31;95931.72;;;11.65;69.84
32197;BME280;18697;42.770;23.400;2023-05-10T10:24:56;95940.06;;;11.74;67.78
32197;BME280;18697;42.770;23.400;2023-05-10T10:27:33;95935.75;;;11.82;68.12
32197;BME280;18697;42.770;23.400;2023-05-10T10:35:34;95942.25;;;11.88;65.11
32197;BME280;18697;42.770;23.400;2023-05-10T10:38:00;95939.47;;;11.88;66.08
32197;BME280;18697;42.770;23.400;2023-05-10T10:40:32;95944.41;;;11.75;66.13
32197;BME280;18697;42.770;23.400;2023-05-10T10:43:21;95935.13;;;11.69;66.55
32197;BME280;18697;42.770;23.400;2023-05-10T10:46:09;95954.94;;;11.80;67.76
32197;BME280;18697;42.770;23.400;2023-05-10T10:48:35;95944.75;;;11.77;67.01
32197;BME280;18697;42.770;23.400;2023-05-10T10:51:00;95937.44;;;11.61;67.30
32197;BME280;18697;42.770;23.400;2023-05-10T10:53:27;95942.22;;;11.61;68.26
32197;BME280;18697;42.770;23.400;2023-05-10T10:56:05;95940.72;;;11.78;67.26
32197;BME280;18697;42.770;23.400;2023-05-10T10:58:33;95943.00;;;11.70;66.69
32197;BME280;18697;42.770;23.400;2023-05-10T11:01:18;95936.03;;;11.57;67.90
32197;BME280;18697;42.770;23.400;2023-05-10T11:06:30;95945.63;;;11.65;67.50
32197;BME280;18697;42.770;23.400;2023-05-10T11:08:59;95938.06;;;11.74;67.05
32197;BME280;18697;42.770;23.400;2023-05-10T11:11:30;95945.00;;;11.70;66.00
32197;BME280;18697;42.770;23.400;2023-05-10T11:14:03;95942.38;;;11.75;67.70
32197;BME280;18697;42.770;23.400;2023-05-10T11:16:40;95941.63;;;11.66;68.09
32197;BME280;18697;42.770;23.400;2023-05-10T11:19:11;95938.56;;;11.82;67.65
32197;BME280;18697;42.770;23.400;2023-05-10T11:24:30;95937.75;;;11.72;67.89
32197;BME280;18697;42.770;23.400;2023-05-10T11:26:56;95947.66;;;11.82;67.44
32197;BME280;18697;42.770;23.400;2023-05-10T11:29:21;95941.94;;;11.86;67.25
32197;BME280;18697;42.770;23.400;2023-05-10T11:31:50;95936.50;;;11.73;66.20
32197;BME280;18697;42.770;23.400;2023-05-10T11:34:29;95931.41;;;11.90;66.78
32197;BME280;18697;42.770;23.400;2023-05-10T11:36:56;95936.19;;;11.90;65.80
32197;BME280;18697;42.770;23.400;2023-05-10T11:39:29;95937.88;;;12.05;64.82
32197;BME280;18697;42.770;23.400;2023-05-10T11:41:56;95948.41;;;12.10;66.25
32197;BME280;18697;42.770;23.400;2023-05-10T11:44:21;95938.66;;;12.06;66.81
32197;BME280;18697;42.770;23.400;2023-05-10T11:46:48;95934.47;;;12.10;68.09
32197;BME280;18697;42.770;23.400;2023-05-10T11:49:13;95930.13;;;12.18;68.70
32197;BME280;18697;42.770;23.400;2023-05-10T11:51:39;95938.16;;;12.26;67.23
32197;BME280;18697;42.770;23.400;2023-05-10T11:54:09;95929.19;;;12.31;66.81
32197;BME280;18697;42.770;23.400;2023-05-10T11:56:37;95933.94;;;12.39;68.88
32197;BME280;18697;42.770;23.400;2023-05-10T11:59:03;95939.69;;;12.36;68.08
32197;BME280;18697;42.770;23.400;2023-05-10T12:01:28;95925.03;;;12.17;66.47
32197;BME280;18697;42.770;23.400;2023-05-10T12:03:55;95926.22;;;12.34;67.06
32197;BME280;18697;42.770;23.400;2023-05-10T12:06:27;95932.44;;;12.20;66.90
32197;BME280;18697;42.770;23.400;2023-05-10T12:08:54;95922.56;;;12.19;68.57
32197;BME280;18697;42.770;23.400;2023-05-10T12:11:19;95929.81;;;12.26;67.55
32197;BME280;18697;42.770;23.400;2023-05-10T12:13:46;95924.22;;;12.26;67.76
32197;BME280;18697;42.770;23.400;2023-05-10T12:16:38;95923.44;;;12.34;66.09
32197;BME280;18697;42.770;23.400;2023-05-10T12:19:04;95916.47;;;12.39;65.80
32197;BME280;18697;42.770;23.400;2023-05-10T12:21:30;95916.16;;;12.37;66.12
32197;BME280;18697;42.770;23.400;2023-05-10T12:24:01;95926.22;;;12.34;64.96
32197;BME280;18697;42.770;23.400;2023-05-10T12:26:28;95911.69;;;12.30;65.41
32197;BME280;18697;42.770;23.400;2023-05-10T12:28:54;95921.59;;;12.31;65.54
32197;BME280;18697;42.770;23.400;2023-05-10T12:31:19;95911.25;;;12.23;65.82
32197;BME280;18697;42.770;23.400;2023-05-10T12:33:45;95910.28;;;12.35;67.48
32197;BME280;18697;42.770;23.400;2023-05-10T12:36:14;95899.72;;;12.48;66.91
32197;BME280;18697;42.770;23.400;2023-05-10T12:38:41;95902.69;;;12.44;66.16
32197;BME280;18697;42.770;23.400;2023-05-10T12:41:14;95901.94;;;12.35;65.97
32197;BME280;18697;42.770;23.400;2023-05-10T12:43:40;95895.47;;;12.20;66.92
32197;BME280;18697;42.770;23.400;2023-05-10T12:48:32;95894.50;;;12.32;67.47
32197;BME280;18697;42.770;23.400;2023-05-10T12:50:59;95895.63;;;12.16;68.08
32197;BME280;18697;42.770;23.400;2023-05-10T12:53:25;95888.66;;;12.21;67.50
32197;BME280;18697;42.770;23.400;2023-05-10T12:55:50;95893.47;;;12.20;67.80
32197;BME280;18697;42.770;23.400;2023-05-10T12:58:16;95894.09;;;12.15;68.73
32197;BME280;18697;42.770;23.400;2023-05-10T13:00:41;95879.41;;;12.14;68.90
32197;BME280;18697;42.770;23.400;2023-05-10T13:03:07;95872.91;;;12.17;69.79
32197;BME280;18697;42.770;23.400;2023-05-10T13:05:32;95884.03;;;12.17;68.70
32197;BME280;18697;42.770;23.400;2023-05-10T13:07:58;95871.97;;;12.21;69.38
32197;BME280;18697;42.770;23.400;2023-05-10T13:10:23;95866.69;;;12.23;69.16
32197;BME280;18697;42.770;23.400;2023-05-10T13:12:49;95875.97;;;12.20;68.60
32197;BME280;18697;42.770;23.400;2023-05-10T13:15:14;95872.31;;;12.04;68.90
32197;BME280;18697;42.770;23.400;2023-05-10T13:17:40;95877.56;;;12.02;69.56
32197;BME280;18697;42.770;23.400;2023-05-10T13:20:05;95888.06;;;12.07;69.46
32197;BME280;18697;42.770;23.400;2023-05-10T13:22:31;95870.59;;;12.07;70.74